createdAt,value
2023-03-06T00:01:20.982Z,100171.31
2023-03-06T00:03:49.282Z,100179.91
2023-03-06T00:06:20.082Z,100173.69
2023-03-06T00:08:47.845Z,100182.47
2023-03-06T00:11:16.121Z,100173.75
2023-03-06T00:13:44.093Z,100176.22
2023-03-06T00:16:12.382Z,100173.38
2023-03-06T00:18:41.030Z,100181.44
2023-03-06T00:21:12.867Z,100165.47
2023-03-06T00:23:41.496Z,100174.72
2023-03-06T00:26:10.429Z,100168.19
2023-03-06T00:28:41.401Z,100160.06
2023-03-06T00:31:10.661Z,100161.28
2023-03-06T00:33:38.718Z,100154.03
2023-03-06T00:36:07.467Z,100154.63
2023-03-06T00:38:37.350Z,100154.97
2023-03-06T00:41:14.996Z,100155.22
2023-03-06T00:43:43.335Z,100155.00
2023-03-06T00:46:11.425Z,100154.25
2023-03-06T00:48:41.095Z,100151.84
2023-03-06T00:51:14.031Z,100158.44
2023-03-06T00:53:42.605Z,100146.16
2023-03-06T00:56:11.272Z,100149.78
2023-03-06T00:58:39.828Z,100138.09
2023-03-06T01:01:08.195Z,100132.94
2023-03-06T01:03:36.442Z,100137.72
2023-03-06T01:06:04.522Z,100129.81
2023-03-06T01:08:35.774Z,100119.44
2023-03-06T01:11:03.939Z,100134.28
2023-03-06T01:13:31.923Z,100126.28
2023-03-06T01:16:08.355Z,100106.06
2023-03-06T01:18:36.568Z,100119.38
2023-03-06T01:21:06.347Z,100118.59
2023-03-06T01:23:37.292Z,100116.22
2023-03-06T01:26:05.783Z,100099.31
2023-03-06T01:28:37.624Z,100102.53
2023-03-06T01:31:07.630Z,100106.34
2023-03-06T01:33:36.553Z,100096.84
2023-03-06T01:36:11.251Z,100100.03
2023-03-06T01:38:39.467Z,100105.31
2023-03-06T01:41:08.054Z,100087.25
2023-03-06T01:43:37.999Z,100093.72
2023-03-06T01:46:26.450Z,100095.25
2023-03-06T01:48:59.614Z,100089.09
2023-03-06T01:51:35.592Z,100094.03
2023-03-06T01:54:21.882Z,100090.97
2023-03-06T01:56:53.964Z,100082.16
2023-03-06T01:59:23.128Z,100071.94
2023-03-06T02:01:51.968Z,100073.94
2023-03-06T02:04:26.946Z,100079.66
2023-03-06T02:06:57.575Z,100081.44
2023-03-06T02:09:29.931Z,100082.72
2023-03-06T02:12:00.281Z,100092.88
2023-03-06T02:14:32.583Z,100086.38
2023-03-06T02:17:01.465Z,100076.25
2023-03-06T02:19:52.113Z,100091.47
2023-03-06T02:22:28.099Z,100087.66
2023-03-06T02:25:01.814Z,100069.69
2023-03-06T02:27:30.423Z,100069.28
2023-03-06T02:29:58.559Z,100084.22
2023-03-06T02:32:26.509Z,100084.69
2023-03-06T02:34:57.323Z,100072.81
2023-03-06T02:37:28.615Z,100077.91
2023-03-06T02:40:08.584Z,100072.53
2023-03-06T02:42:36.601Z,100059.78
2023-03-06T02:45:08.199Z,100064.44
2023-03-06T02:47:36.074Z,100056.75
2023-03-06T02:50:04.449Z,100072.31
2023-03-06T02:52:32.622Z,100072.00
2023-03-06T02:55:00.792Z,100065.28
2023-03-06T02:57:28.896Z,100067.00
2023-03-06T03:00:10.045Z,100060.38
2023-03-06T03:02:38.848Z,100070.25
2023-03-06T03:05:07.937Z,100045.03
2023-03-06T03:07:37.413Z,100053.13
2023-03-06T03:10:12.571Z,100050.25
2023-03-06T03:12:40.888Z,100051.28
2023-03-06T03:15:10.239Z,100043.97
2023-03-06T03:17:43.602Z,100054.25
2023-03-06T03:20:16.879Z,100053.00
2023-03-06T03:22:56.295Z,100049.53
2023-03-06T03:25:27.572Z,100054.72
2023-03-06T03:27:58.411Z,100043.63
2023-03-06T03:30:30.568Z,100048.41
2023-03-06T03:32:58.445Z,100057.44
2023-03-06T03:35:27.353Z,100060.06
2023-03-06T03:37:56.966Z,100046.28
2023-03-06T03:40:27.120Z,100043.00
2023-03-06T03:42:55.630Z,100053.09
2023-03-06T03:45:24.832Z,100050.28
2023-03-06T03:47:53.111Z,100049.25
2023-03-06T03:50:23.398Z,100036.63
2023-03-06T03:52:51.844Z,100048.47
2023-03-06T03:55:20.172Z,100036.59
2023-03-06T03:57:48.124Z,100049.91
2023-03-06T04:00:17.130Z,100053.53
2023-03-06T04:02:55.860Z,100052.47
2023-03-06T04:05:34.077Z,100050.66
2023-03-06T04:08:05.811Z,100047.91
2023-03-06T04:10:36.733Z,100058.09
2023-03-06T04:13:05.065Z,100048.66
2023-03-06T04:15:33.597Z,100042.09
2023-03-06T04:18:02.865Z,100041.50
2023-03-06T04:20:31.841Z,100046.78
2023-03-06T04:23:01.712Z,100038.44
2023-03-06T04:25:30.495Z,100033.78
2023-03-06T04:28:00.922Z,100035.31
2023-03-06T04:30:30.161Z,100027.41
2023-03-06T04:32:59.112Z,100028.50
2023-03-06T04:35:28.000Z,100043.84
2023-03-06T04:38:01.300Z,100034.31
2023-03-06T04:40:33.926Z,100041.13
2023-03-06T04:43:03.260Z,100028.09
2023-03-06T04:45:33.181Z,100021.47
2023-03-06T04:48:01.875Z,100029.25
2023-03-06T04:50:32.752Z,100032.91
2023-03-06T04:53:03.695Z,100037.28
2023-03-06T04:55:32.749Z,100039.00
2023-03-06T04:58:00.893Z,100021.97
2023-03-06T05:00:31.949Z,100027.63
2023-03-06T05:03:01.914Z,100023.63
2023-03-06T05:05:30.319Z,100023.81
2023-03-06T05:07:58.590Z,100004.41
2023-03-06T05:10:27.137Z,100014.66
2023-03-06T05:12:55.761Z,100014.81
2023-03-06T05:15:26.829Z,100012.81
2023-03-06T05:17:58.081Z,100006.19
2023-03-06T05:20:26.472Z,100013.28
2023-03-06T05:22:54.965Z,100013.47
2023-03-06T05:25:23.631Z,100008.09
2023-03-06T05:27:51.681Z,100018.38
2023-03-06T05:30:21.421Z,100009.28
2023-03-06T05:32:50.070Z,100002.38
2023-03-06T05:35:20.873Z,100010.97
2023-03-06T05:37:49.764Z,100028.88
2023-03-06T05:40:18.707Z,100006.78
2023-03-06T05:42:46.693Z,100005.13
2023-03-06T05:45:14.437Z,100006.75
2023-03-06T05:47:42.353Z,100020.22
2023-03-06T05:50:12.504Z,100009.94
2023-03-06T05:52:41.179Z,100019.63
2023-03-06T05:55:13.326Z,100013.94
2023-03-06T05:57:41.204Z,100009.22
2023-03-06T06:00:10.719Z,100002.06
2023-03-06T06:02:41.873Z,100001.72
2023-03-06T06:05:12.851Z,100016.50
2023-03-06T06:07:41.759Z,100018.41
2023-03-06T06:10:11.507Z,100016.84
2023-03-06T06:12:39.427Z,100017.59
2023-03-06T06:15:08.005Z,100028.31
2023-03-06T06:17:35.918Z,100033.66
2023-03-06T06:20:04.196Z,100012.03
2023-03-06T06:22:36.280Z,100023.75
2023-03-06T06:25:05.416Z,100023.03
2023-03-06T06:27:33.276Z,100019.13
2023-03-06T06:30:01.056Z,100022.03
2023-03-06T06:32:29.148Z,100007.69
2023-03-06T06:34:57.526Z,100016.50
2023-03-06T06:37:26.174Z,100018.09
2023-03-06T06:39:53.813Z,100018.44
2023-03-06T06:42:31.460Z,100011.72
2023-03-06T06:45:02.831Z,100024.34
2023-03-06T06:47:31.991Z,100014.97
2023-03-06T06:50:00.003Z,100019.09
2023-03-06T06:52:28.049Z,100015.75
2023-03-06T06:54:56.088Z,100021.03
2023-03-06T06:57:24.187Z,100015.59
2023-03-06T06:59:54.179Z,100022.84
2023-03-06T07:02:22.703Z,100029.00
2023-03-06T07:05:03.212Z,100034.81
2023-03-06T07:07:34.605Z,100030.78
2023-03-06T07:10:07.417Z,100036.25
2023-03-06T07:12:35.448Z,100034.88
2023-03-06T07:15:05.291Z,100036.28
2023-03-06T07:17:33.661Z,100041.91
2023-03-06T07:20:01.406Z,100035.81
2023-03-06T07:22:31.954Z,100034.09
2023-03-06T07:25:06.482Z,100042.13
2023-03-06T07:27:34.209Z,100031.75
2023-03-06T07:30:02.405Z,100033.19
2023-03-06T07:32:30.540Z,100038.56
2023-03-06T07:35:18.747Z,100037.75
2023-03-06T07:37:47.616Z,100029.97
2023-03-06T07:40:15.576Z,100037.06
2023-03-06T07:42:43.626Z,100044.25
2023-03-06T07:45:14.227Z,100036.88
2023-03-06T07:47:42.272Z,100038.69
2023-03-06T07:50:10.944Z,100049.75
2023-03-06T07:52:38.993Z,100046.44
2023-03-06T07:55:07.816Z,100047.19
2023-03-06T07:57:37.055Z,100040.44
2023-03-06T08:00:07.384Z,100049.56
2023-03-06T08:02:49.191Z,100040.09
2023-03-06T08:05:17.781Z,100051.44
2023-03-06T08:07:48.681Z,100048.97
2023-03-06T08:10:17.394Z,100055.63
2023-03-06T08:12:45.266Z,100045.84
2023-03-06T08:15:20.258Z,100048.84
2023-03-06T08:17:48.272Z,100052.22
2023-03-06T08:20:18.735Z,100056.66
2023-03-06T08:22:46.459Z,100052.88
2023-03-06T08:25:14.594Z,100064.38
2023-03-06T08:27:43.516Z,100054.16
2023-03-06T08:30:12.709Z,100061.84
2023-03-06T08:32:40.861Z,100061.84
2023-03-06T08:35:09.566Z,100063.19
2023-03-06T08:37:39.505Z,100059.22
2023-03-06T08:40:08.822Z,100051.56
2023-03-06T08:42:36.874Z,100049.81
2023-03-06T08:45:08.780Z,100050.72
2023-03-06T08:47:36.702Z,100050.59
2023-03-06T08:50:05.004Z,100050.53
2023-03-06T08:52:33.459Z,100061.91
2023-03-06T08:55:03.763Z,100066.84
2023-03-06T08:57:31.822Z,100064.84
2023-03-06T09:00:00.424Z,100054.69
2023-03-06T09:02:30.199Z,100067.59
2023-03-06T09:04:59.736Z,100060.28
2023-03-06T09:07:27.925Z,100044.50
2023-03-06T09:09:57.884Z,100051.03
2023-03-06T09:12:27.234Z,100057.78
2023-03-06T09:14:56.173Z,100056.34
2023-03-06T09:17:24.082Z,100051.47
2023-03-06T09:19:52.584Z,100052.41
2023-03-06T09:22:20.532Z,100034.13
2023-03-06T09:24:48.362Z,100038.59
2023-03-06T09:27:16.513Z,100045.88
2023-03-06T09:29:44.400Z,100040.47
2023-03-06T09:32:12.424Z,100050.59
2023-03-06T09:34:40.455Z,100040.88
2023-03-06T09:37:08.631Z,100044.63
2023-03-06T09:39:36.763Z,100028.22
2023-03-06T09:42:08.736Z,100041.75
2023-03-06T09:44:41.397Z,100045.25
2023-03-06T09:47:36.977Z,100043.84
2023-03-06T09:50:28.744Z,100033.47
2023-03-06T09:53:03.041Z,100025.16
2023-03-06T09:55:38.379Z,100038.38
2023-03-06T09:58:23.036Z,100025.81
2023-03-06T10:01:12.487Z,100027.38
2023-03-06T10:03:53.480Z,100036.47
2023-03-06T10:06:28.604Z,100042.44
2023-03-06T10:08:56.427Z,100040.75
2023-03-06T10:11:42.574Z,100042.09
2023-03-06T10:14:49.034Z,100040.72
2023-03-06T10:17:21.342Z,100047.78
2023-03-06T10:19:50.133Z,100032.16
2023-03-06T10:22:43.746Z,100039.72
2023-03-06T10:25:28.409Z,100036.91
2023-03-06T10:28:11.737Z,100039.03
2023-03-06T10:30:58.252Z,100035.63
2023-03-06T10:33:50.231Z,100023.06
2023-03-06T10:36:19.900Z,100028.38
2023-03-06T10:38:48.996Z,100033.34
2023-03-06T10:41:36.664Z,100025.03
2023-03-06T10:44:08.216Z,100024.19
2023-03-06T10:46:39.812Z,100029.69
2023-03-06T10:49:40.367Z,100016.59
2023-03-06T10:52:14.145Z,100011.75
2023-03-06T10:54:44.751Z,100008.75
2023-03-06T10:57:26.681Z,99999.06
2023-03-06T11:00:02.793Z,100007.31
2023-03-06T11:02:44.392Z,99998.34
2023-03-06T11:05:22.770Z,100006.50
2023-03-06T11:08:00.442Z,100000.38
2023-03-06T11:10:31.365Z,99992.44
2023-03-06T11:13:00.760Z,100002.00
2023-03-06T11:15:29.876Z,99991.16
2023-03-06T11:18:10.402Z,99984.91
2023-03-06T11:20:52.872Z,99991.19
2023-03-06T11:23:39.887Z,99975.38
2023-03-06T11:26:20.069Z,99978.69
2023-03-06T11:29:03.704Z,99985.44
2023-03-06T11:31:45.243Z,99976.56
2023-03-06T11:34:30.660Z,99975.97
2023-03-06T11:37:25.805Z,99967.69
2023-03-06T11:40:12.281Z,99970.13
2023-03-06T11:42:53.430Z,99959.69
2023-03-06T11:45:45.257Z,99955.78
2023-03-06T11:48:19.778Z,99961.13
2023-03-06T11:51:03.860Z,99971.00
2023-03-06T11:53:39.011Z,99947.16
2023-03-06T11:56:25.267Z,99950.53
2023-03-06T11:59:02.022Z,99959.03
2023-03-06T12:01:48.567Z,99944.84
2023-03-06T12:04:55.049Z,99941.03
2023-03-06T12:07:35.001Z,99941.69
2023-03-06T12:10:40.201Z,99930.00
2023-03-06T12:13:21.698Z,99922.41
2023-03-06T12:16:25.339Z,99921.09
2023-03-06T12:19:28.492Z,99915.63
2023-03-06T12:22:09.815Z,99904.94
2023-03-06T12:25:31.145Z,99901.00
2023-03-06T12:28:39.965Z,99887.69
2023-03-06T12:31:29.012Z,99880.53
2023-03-06T12:34:13.056Z,99872.84
2023-03-06T12:36:49.088Z,99884.47
2023-03-06T12:39:30.121Z,99872.03
2023-03-06T12:42:17.887Z,99878.13
2023-03-06T12:45:30.873Z,99874.16
2023-03-06T12:48:03.298Z,99868.38
2023-03-06T12:50:36.141Z,99861.28
2023-03-06T12:53:16.939Z,99856.28
2023-03-06T12:55:51.232Z,99856.22
2023-03-06T12:58:31.723Z,99851.19
2023-03-06T13:01:12.488Z,99857.25
2023-03-06T13:03:59.420Z,99845.34
2023-03-06T13:11:16.422Z,99832.09
2023-03-06T13:13:48.174Z,99834.84
2023-03-06T13:16:42.586Z,99834.63
2023-03-06T13:24:06.883Z,99814.84
2023-03-06T13:26:36.378Z,99810.63
2023-03-06T13:47:32.343Z,99800.75
2023-03-06T13:50:03.270Z,99799.13
2023-03-06T14:07:43.499Z,99775.25
2023-03-06T14:16:00.584Z,99765.56
2023-03-06T14:29:13.256Z,99759.16
2023-03-06T14:32:58.284Z,99750.94
2023-03-06T14:35:32.703Z,99749.22
2023-03-06T14:43:27.750Z,99743.28
2023-03-06T14:46:22.142Z,99740.66
2023-03-06T14:48:50.150Z,99740.81
2023-03-06T14:51:21.912Z,99741.31
2023-03-06T14:54:04.016Z,99740.69
2023-03-06T14:56:37.444Z,99738.75
2023-03-06T15:04:00.403Z,99730.38
2023-03-06T15:25:45.657Z,99722.53
2023-03-06T15:29:14.443Z,99719.13
2023-03-06T15:31:45.521Z,99716.34
2023-03-06T15:35:06.877Z,99718.69
2023-03-06T15:37:36.075Z,99716.19
2023-03-06T15:40:12.277Z,99722.88
2023-03-06T15:42:52.220Z,99710.84
2023-03-06T15:45:31.369Z,99720.66
2023-03-06T15:53:40.090Z,99710.72
2023-03-06T15:56:10.638Z,99707.78
2023-03-06T15:58:40.734Z,99704.06
2023-03-06T16:01:16.878Z,99708.06
2023-03-06T16:03:46.304Z,99709.16
2023-03-06T16:06:19.684Z,99705.03
2023-03-06T16:08:47.809Z,99706.88
2023-03-06T16:11:26.016Z,99707.91
2023-03-06T16:13:59.305Z,99709.81
2023-03-06T16:16:39.704Z,99699.03
2023-03-06T16:19:25.402Z,99705.19
2023-03-06T16:21:55.895Z,99714.50
2023-03-06T16:24:26.953Z,99714.19
2023-03-06T16:26:57.601Z,99707.72
2023-03-06T16:29:27.876Z,99710.06
2023-03-06T16:36:23.769Z,99708.50
2023-03-06T16:39:04.652Z,99708.63
2023-03-06T16:41:51.938Z,99711.72
2023-03-06T16:44:20.972Z,99702.81
2023-03-06T16:46:50.579Z,99710.09
2023-03-06T16:49:23.511Z,99718.00
2023-03-06T16:52:07.007Z,99712.16
2023-03-06T16:54:45.123Z,99708.78
2023-03-06T16:57:18.993Z,99708.59
2023-03-06T16:59:48.713Z,99708.66
2023-03-06T17:02:28.800Z,99709.63
2023-03-06T17:04:56.961Z,99718.09
2023-03-06T17:07:30.923Z,99711.06
2023-03-06T17:10:02.493Z,99701.53
2023-03-06T17:12:38.056Z,99720.56
2023-03-06T17:15:08.084Z,99716.63
2023-03-06T17:17:43.172Z,99720.31
2023-03-06T17:20:25.608Z,99722.31
2023-03-06T17:22:54.205Z,99714.72
2023-03-06T17:25:23.693Z,99716.25
2023-03-06T17:30:59.993Z,99721.16
2023-03-06T17:33:28.379Z,99731.63
2023-03-06T17:40:51.355Z,99739.63
2023-03-06T17:43:24.881Z,99743.38
2023-03-06T17:45:52.510Z,99739.09
2023-03-06T17:48:21.617Z,99728.94
2023-03-06T17:50:56.982Z,99741.75
2023-03-06T17:53:25.849Z,99737.78
2023-03-06T17:55:54.531Z,99749.59
2023-03-06T17:58:25.459Z,99755.22
2023-03-06T18:01:00.209Z,99754.19
2023-03-06T18:03:36.817Z,99739.88
2023-03-06T18:06:09.718Z,99751.31
2023-03-06T23:03:53.945Z,99789.03
2023-03-06T23:06:31.073Z,99796.34
2023-03-06T23:09:08.583Z,99801.38
2023-03-06T23:11:55.136Z,99795.91
2023-03-06T23:14:41.848Z,99812.03
2023-03-06T23:17:28.531Z,99813.78
2023-03-06T23:20:15.315Z,99818.66
2023-03-06T23:23:04.860Z,99816.31
2023-03-06T23:25:42.897Z,99822.84
2023-03-06T23:28:12.038Z,99822.13
2023-03-06T23:30:41.326Z,99820.34
2023-03-06T23:33:09.945Z,99828.91
2023-03-06T23:35:39.177Z,99825.44
2023-03-06T23:38:08.501Z,99821.66
2023-03-06T23:40:38.802Z,99823.47
2023-03-06T23:43:07.146Z,99820.22
2023-03-06T23:45:35.291Z,99816.09
2023-03-06T23:48:05.923Z,99832.78
2023-03-06T23:50:33.794Z,99825.31
2023-03-06T23:53:01.775Z,99817.81
2023-03-06T23:55:29.569Z,99816.78
2023-03-06T23:57:59.335Z,99821.88
